sensor_id;sensor_type;location;lat;lon;timestamp;P1;durP1;ratioP1;P2;durP2;ratioP2
61330;SDS011;57640;52.472;-1.950;2023-05-07T00:01:55;1.63;;;1.52;;
61330;SDS011;57640;52.472;-1.950;2023-05-07T00:05:01;3.40;;;1.90;;
61330;SDS011;57640;52.472;-1.950;2023-05-07T00:08:06;2.25;;;1.85;;
61330;SDS011;57640;52.472;-1.950;2023-05-07T00:11:12;2.15;;;1.70;;
61330;SDS011;57640;52.472;-1.950;2023-05-07T00:14:20;2.05;;;1.67;;
61330;SDS011;57640;52.472;-1.950;2023-05-07T00:17:25;2.15;;;1.80;;
61330;SDS011;57640;52.472;-1.950;2023-05-07T00:20:30;1.90;;;1.70;;
61330;SDS011;57640;52.472;-1.950;2023-05-07T00:23:36;1.90;;;1.70;;
61330;SDS011;57640;52.472;-1.950;2023-05-07T00:26:41;1.77;;;1.67;;
61330;SDS011;57640;52.472;-1.950;2023-05-07T00:29:49;1.95;;;1.67;;
61330;SDS011;57640;52.472;-1.950;2023-05-07T00:32:54;1.95;;;1.73;;
61330;SDS011;57640;52.472;-1.950;2023-05-07T00:35:59;1.98;;;1.77;;
61330;SDS011;57640;52.472;-1.950;2023-05-07T00:39:05;2.50;;;2.30;;
61330;SDS011;57640;52.472;-1.950;2023-05-07T00:42:10;2.08;;;1.80;;
61330;SDS011;57640;52.472;-1.950;2023-05-07T00:45:19;2.10;;;1.90;;
61330;SDS011;57640;52.472;-1.950;2023-05-07T00:48:25;2.33;;;2.00;;
61330;SDS011;57640;52.472;-1.950;2023-05-07T00:51:30;2.05;;;1.80;;
61330;SDS011;57640;52.472;-1.950;2023-05-07T00:54:36;1.67;;;1.58;;
61330;SDS011;57640;52.472;-1.950;2023-05-07T00:57:41;1.88;;;1.50;;
61330;SDS011;57640;52.472;-1.950;2023-05-07T01:00:49;2.00;;;1.70;;
61330;SDS011;57640;52.472;-1.950;2023-05-07T01:03:55;1.80;;;1.60;;
61330;SDS011;57640;52.472;-1.950;2023-05-07T01:07:00;1.95;;;1.50;;
61330;SDS011;57640;52.472;-1.950;2023-05-07T01:10:06;2.28;;;1.80;;
61330;SDS011;57640;52.472;-1.950;2023-05-07T01:13:12;1.70;;;1.60;;
61330;SDS011;57640;52.472;-1.950;2023-05-07T01:16:21;1.60;;;1.50;;
61330;SDS011;57640;52.472;-1.950;2023-05-07T01:19:27;2.05;;;1.85;;
61330;SDS011;57640;52.472;-1.950;2023-05-07T01:22:36;2.03;;;1.67;;
61330;SDS011;57640;52.472;-1.950;2023-05-07T01:28:47;1.60;;;1.50;;
61330;SDS011;57640;52.472;-1.950;2023-05-07T01:31:52;1.90;;;1.67;;
61330;SDS011;57640;52.472;-1.950;2023-05-07T01:34:57;1.60;;;1.50;;
61330;SDS011;57640;52.472;-1.950;2023-05-07T01:38:06;1.98;;;1.77;;
61330;SDS011;57640;52.472;-1.950;2023-05-07T01:41:11;2.15;;;1.85;;
61330;SDS011;57640;52.472;-1.950;2023-05-07T01:44:17;2.00;;;1.63;;
61330;SDS011;57640;52.472;-1.950;2023-05-07T01:47:23;1.67;;;1.58;;
61330;SDS011;57640;52.472;-1.950;2023-05-07T01:50:29;1.67;;;1.58;;
61330;SDS011;57640;52.472;-1.950;2023-05-07T01:53:40;2.10;;;1.77;;
61330;SDS011;57640;52.472;-1.950;2023-05-07T01:56:46;1.92;;;1.67;;
61330;SDS011;57640;52.472;-1.950;2023-05-07T01:59:52;1.85;;;1.65;;
61330;SDS011;57640;52.472;-1.950;2023-05-07T02:02:57;1.75;;;1.50;;
61330;SDS011;57640;52.472;-1.950;2023-05-07T02:06:03;1.75;;;1.55;;
61330;SDS011;57640;52.472;-1.950;2023-05-07T02:09:11;1.70;;;1.60;;
61330;SDS011;57640;52.472;-1.950;2023-05-07T02:12:16;2.55;;;1.85;;
61330;SDS011;57640;52.472;-1.950;2023-05-07T02:15:22;2.45;;;1.60;;
61330;SDS011;57640;52.472;-1.950;2023-05-07T02:18:27;1.63;;;1.50;;
61330;SDS011;57640;52.472;-1.950;2023-05-07T02:21:33;1.98;;;1.60;;
61330;SDS011;57640;52.472;-1.950;2023-05-07T02:24:40;1.55;;;1.45;;
61330;SDS011;57640;52.472;-1.950;2023-05-07T02:27:46;1.65;;;1.50;;
61330;SDS011;57640;52.472;-1.950;2023-05-07T02:30:52;2.10;;;1.70;;
61330;SDS011;57640;52.472;-1.950;2023-05-07T02:33:57;1.83;;;1.70;;
61330;SDS011;57640;52.472;-1.950;2023-05-07T02:37:02;1.52;;;1.40;;
61330;SDS011;57640;52.472;-1.950;2023-05-07T02:40:11;1.70;;;1.40;;
61330;SDS011;57640;52.472;-1.950;2023-05-07T02:46:21;1.88;;;1.58;;
61330;SDS011;57640;52.472;-1.950;2023-05-07T02:49:27;1.67;;;1.58;;
61330;SDS011;57640;52.472;-1.950;2023-05-07T02:52:32;2.67;;;1.70;;
61330;SDS011;57640;52.472;-1.950;2023-05-07T02:55:40;2.15;;;1.60;;
61330;SDS011;57640;52.472;-1.950;2023-05-07T02:58:45;1.75;;;1.65;;
61330;SDS011;57640;52.472;-1.950;2023-05-07T03:01:51;1.70;;;1.60;;
61330;SDS011;57640;52.472;-1.950;2023-05-07T03:04:56;1.88;;;1.70;;
61330;SDS011;57640;52.472;-1.950;2023-05-07T03:08:01;1.85;;;1.75;;
61330;SDS011;57640;52.472;-1.950;2023-05-07T03:11:10;1.65;;;1.42;;
61330;SDS011;57640;52.472;-1.950;2023-05-07T03:14:15;1.98;;;1.77;;
61330;SDS011;57640;52.472;-1.950;2023-05-07T03:17:21;2.28;;;1.80;;
61330;SDS011;57640;52.472;-1.950;2023-05-07T03:20:26;2.13;;;1.80;;
61330;SDS011;57640;52.472;-1.950;2023-05-07T03:23:32;1.70;;;1.42;;
61330;SDS011;57640;52.472;-1.950;2023-05-07T03:26:40;1.50;;;1.40;;
61330;SDS011;57640;52.472;-1.950;2023-05-07T03:29:45;2.08;;;1.70;;
61330;SDS011;57640;52.472;-1.950;2023-05-07T03:32:50;1.60;;;1.50;;
61330;SDS011;57640;52.472;-1.950;2023-05-07T03:35:56;1.80;;;1.70;;
61330;SDS011;57640;52.472;-1.950;2023-05-07T03:39:01;1.63;;;1.52;;
61330;SDS011;57640;52.472;-1.950;2023-05-07T03:42:09;1.90;;;1.70;;
61330;SDS011;57640;52.472;-1.950;2023-05-07T03:45:15;2.10;;;1.80;;
61330;SDS011;57640;52.472;-1.950;2023-05-07T03:48:20;2.03;;;1.60;;
61330;SDS011;57640;52.472;-1.950;2023-05-07T03:51:26;1.70;;;1.60;;
61330;SDS011;57640;52.472;-1.950;2023-05-07T03:54:32;1.80;;;1.60;;
61330;SDS011;57640;52.472;-1.950;2023-05-07T03:57:40;2.00;;;1.80;;
61330;SDS011;57640;52.472;-1.950;2023-05-07T04:01:11;2.13;;;1.63;;
61330;SDS011;57640;52.472;-1.950;2023-05-07T04:04:15;2.00;;;1.80;;
61330;SDS011;57640;52.472;-1.950;2023-05-07T04:07:18;2.00;;;1.80;;
61330;SDS011;57640;52.472;-1.950;2023-05-07T04:10:24;1.60;;;1.50;;
61330;SDS011;57640;52.472;-1.950;2023-05-07T04:13:33;1.95;;;1.67;;
61330;SDS011;57640;52.472;-1.950;2023-05-07T04:16:38;1.60;;;1.40;;
61330;SDS011;57640;52.472;-1.950;2023-05-07T04:19:43;2.00;;;1.80;;
61330;SDS011;57640;52.472;-1.950;2023-05-07T04:22:49;1.98;;;1.58;;
61330;SDS011;57640;52.472;-1.950;2023-05-07T04:25:54;2.17;;;1.60;;
61330;SDS011;57640;52.472;-1.950;2023-05-07T04:29:02;2.00;;;1.80;;
61330;SDS011;57640;52.472;-1.950;2023-05-07T04:32:08;1.90;;;1.65;;
61330;SDS011;57640;52.472;-1.950;2023-05-07T04:35:13;1.85;;;1.40;;
61330;SDS011;57640;52.472;-1.950;2023-05-07T04:38:19;4.20;;;1.77;;
61330;SDS011;57640;52.472;-1.950;2023-05-07T04:41:25;1.98;;;1.65;;
61330;SDS011;57640;52.472;-1.950;2023-05-07T04:44:33;1.73;;;1.60;;
61330;SDS011;57640;52.472;-1.950;2023-05-07T04:47:39;2.60;;;1.70;;
61330;SDS011;57640;52.472;-1.950;2023-05-07T04:50:44;1.73;;;1.60;;
61330;SDS011;57640;52.472;-1.950;2023-05-07T04:53:52;2.70;;;1.83;;
61330;SDS011;57640;52.472;-1.950;2023-05-07T04:56:57;1.55;;;1.30;;
61330;SDS011;57640;52.472;-1.950;2023-05-07T05:00:06;2.15;;;1.60;;
61330;SDS011;57640;52.472;-1.950;2023-05-07T05:03:11;1.73;;;1.58;;
61330;SDS011;57640;52.472;-1.950;2023-05-07T05:06:16;2.03;;;1.67;;
61330;SDS011;57640;52.472;-1.950;2023-05-07T05:09:22;1.73;;;1.60;;
61330;SDS011;57640;52.472;-1.950;2023-05-07T05:12:27;1.75;;;1.50;;
61330;SDS011;57640;52.472;-1.950;2023-05-07T05:15:35;1.50;;;1.40;;
61330;SDS011;57640;52.472;-1.950;2023-05-07T05:18:40;1.50;;;1.40;;
61330;SDS011;57640;52.472;-1.950;2023-05-07T05:21:46;2.25;;;1.52;;
61330;SDS011;57640;52.472;-1.950;2023-05-07T05:24:51;1.55;;;1.33;;
61330;SDS011;57640;52.472;-1.950;2023-05-07T05:27:56;2.95;;;1.40;;
61330;SDS011;57640;52.472;-1.950;2023-05-07T05:31:04;1.52;;;1.27;;
61330;SDS011;57640;52.472;-1.950;2023-05-07T05:34:09;1.75;;;1.52;;
61330;SDS011;57640;52.472;-1.950;2023-05-07T05:37:15;1.67;;;1.35;;
61330;SDS011;57640;52.472;-1.950;2023-05-07T05:40:20;1.77;;;1.42;;
61330;SDS011;57640;52.472;-1.950;2023-05-07T05:43:25;1.95;;;1.30;;
61330;SDS011;57640;52.472;-1.950;2023-05-07T05:46:33;1.40;;;1.20;;
61330;SDS011;57640;52.472;-1.950;2023-05-07T05:52:45;3.10;;;1.40;;
61330;SDS011;57640;52.472;-1.950;2023-05-07T05:55:51;1.42;;;1.27;;
61330;SDS011;57640;52.472;-1.950;2023-05-07T05:58:56;2.13;;;1.40;;
61330;SDS011;57640;52.472;-1.950;2023-05-07T06:02:04;1.75;;;1.40;;
61330;SDS011;57640;52.472;-1.950;2023-05-07T06:05:10;2.17;;;1.40;;
61330;SDS011;57640;52.472;-1.950;2023-05-07T06:08:17;1.88;;;1.20;;
61330;SDS011;57640;52.472;-1.950;2023-05-07T06:11:23;1.92;;;1.40;;
61330;SDS011;57640;52.472;-1.950;2023-05-07T06:14:28;2.85;;;1.38;;
61330;SDS011;57640;52.472;-1.950;2023-05-07T06:17:36;1.23;;;1.05;;
61330;SDS011;57640;52.472;-1.950;2023-05-07T06:20:41;2.05;;;1.42;;
61330;SDS011;57640;52.472;-1.950;2023-05-07T06:23:47;2.17;;;1.20;;
61330;SDS011;57640;52.472;-1.950;2023-05-07T06:26:54;1.95;;;1.33;;
61330;SDS011;57640;52.472;-1.950;2023-05-07T06:30:00;2.58;;;1.27;;
61330;SDS011;57640;52.472;-1.950;2023-05-07T06:33:08;1.77;;;1.20;;
61330;SDS011;57640;52.472;-1.950;2023-05-07T06:36:13;1.70;;;1.25;;
61330;SDS011;57640;52.472;-1.950;2023-05-07T06:39:19;2.28;;;1.20;;
61330;SDS011;57640;52.472;-1.950;2023-05-07T06:42:24;2.03;;;1.30;;
61330;SDS011;57640;52.472;-1.950;2023-05-07T06:45:29;1.73;;;1.20;;
61330;SDS011;57640;52.472;-1.950;2023-05-07T06:48:37;2.40;;;1.30;;
61330;SDS011;57640;52.472;-1.950;2023-05-07T06:51:43;1.20;;;1.00;;
61330;SDS011;57640;52.472;-1.950;2023-05-07T06:54:48;2.03;;;1.40;;
61330;SDS011;57640;52.472;-1.950;2023-05-07T06:57:53;1.75;;;1.33;;
61330;SDS011;57640;52.472;-1.950;2023-05-07T07:01:00;1.27;;;1.17;;
61330;SDS011;57640;52.472;-1.950;2023-05-07T07:04:08;1.10;;;1.00;;
61330;SDS011;57640;52.472;-1.950;2023-05-07T07:07:13;1.60;;;1.10;;
61330;SDS011;57640;52.472;-1.950;2023-05-07T07:10:18;0.93;;;0.88;;
61330;SDS011;57640;52.472;-1.950;2023-05-07T07:13:24;1.17;;;1.00;;
61330;SDS011;57640;52.472;-1.950;2023-05-07T07:16:29;1.30;;;1.00;;
61330;SDS011;57640;52.472;-1.950;2023-05-07T07:19:37;1.88;;;1.10;;
61330;SDS011;57640;52.472;-1.950;2023-05-07T07:22:43;1.77;;;1.20;;
61330;SDS011;57640;52.472;-1.950;2023-05-07T07:25:48;1.33;;;1.00;;
61330;SDS011;57640;52.472;-1.950;2023-05-07T07:28:53;2.05;;;1.10;;
61330;SDS011;57640;52.472;-1.950;2023-05-07T07:31:59;1.00;;;0.90;;
61330;SDS011;57640;52.472;-1.950;2023-05-07T07:35:07;1.55;;;1.10;;
61330;SDS011;57640;52.472;-1.950;2023-05-07T07:38:13;1.65;;;1.10;;
61330;SDS011;57640;52.472;-1.950;2023-05-07T07:41:18;1.10;;;0.90;;
61330;SDS011;57640;52.472;-1.950;2023-05-07T07:44:24;2.00;;;1.10;;
61330;SDS011;57640;52.472;-1.950;2023-05-07T07:47:30;1.10;;;1.00;;
61330;SDS011;57640;52.472;-1.950;2023-05-07T07:50:38;2.78;;;1.10;;
61330;SDS011;57640;52.472;-1.950;2023-05-07T07:53:43;1.00;;;0.90;;
61330;SDS011;57640;52.472;-1.950;2023-05-07T07:56:49;1.50;;;1.00;;
61330;SDS011;57640;52.472;-1.950;2023-05-07T07:59:54;1.30;;;0.90;;
61330;SDS011;57640;52.472;-1.950;2023-05-07T08:02:59;2.20;;;0.93;;
61330;SDS011;57640;52.472;-1.950;2023-05-07T08:06:08;1.00;;;0.80;;
61330;SDS011;57640;52.472;-1.950;2023-05-07T08:09:13;1.77;;;0.85;;
61330;SDS011;57640;52.472;-1.950;2023-05-07T08:12:18;1.25;;;0.80;;
61330;SDS011;57640;52.472;-1.950;2023-05-07T08:15:24;2.13;;;0.90;;
61330;SDS011;57640;52.472;-1.950;2023-05-07T08:18:29;1.60;;;0.90;;
61330;SDS011;57640;52.472;-1.950;2023-05-07T08:21:38;1.25;;;1.00;;
61330;SDS011;57640;52.472;-1.950;2023-05-07T08:24:43;1.13;;;0.93;;
61330;SDS011;57640;52.472;-1.950;2023-05-07T08:27:48;1.42;;;1.02;;
61330;SDS011;57640;52.472;-1.950;2023-05-07T08:30:54;1.92;;;1.00;;
61330;SDS011;57640;52.472;-1.950;2023-05-07T08:34:02;1.40;;;0.90;;
61330;SDS011;57640;52.472;-1.950;2023-05-07T08:37:11;1.05;;;0.90;;
61330;SDS011;57640;52.472;-1.950;2023-05-07T08:40:16;1.10;;;0.98;;
61330;SDS011;57640;52.472;-1.950;2023-05-07T08:43:22;1.40;;;0.90;;
61330;SDS011;57640;52.472;-1.950;2023-05-07T08:46:31;1.20;;;0.95;;
61330;SDS011;57640;52.472;-1.950;2023-05-07T08:49:37;1.70;;;1.02;;
61330;SDS011;57640;52.472;-1.950;2023-05-07T08:52:45;1.25;;;0.80;;
61330;SDS011;57640;52.472;-1.950;2023-05-07T08:55:50;1.23;;;0.80;;
61330;SDS011;57640;52.472;-1.950;2023-05-07T08:58:56;1.20;;;0.80;;
61330;SDS011;57640;52.472;-1.950;2023-05-07T09:02:01;1.42;;;0.88;;
61330;SDS011;57640;52.472;-1.950;2023-05-07T09:05:07;2.40;;;1.20;;
61330;SDS011;57640;52.472;-1.950;2023-05-07T09:08:15;1.23;;;0.88;;
61330;SDS011;57640;52.472;-1.950;2023-05-07T09:11:21;1.10;;;0.80;;
61330;SDS011;57640;52.472;-1.950;2023-05-07T09:14:27;1.25;;;0.90;;
61330;SDS011;57640;52.472;-1.950;2023-05-07T09:17:32;1.40;;;0.80;;
61330;SDS011;57640;52.472;-1.950;2023-05-07T09:20:38;1.15;;;0.80;;
61330;SDS011;57640;52.472;-1.950;2023-05-07T09:23:46;0.98;;;0.82;;
61330;SDS011;57640;52.472;-1.950;2023-05-07T09:26:52;1.00;;;0.80;;
61330;SDS011;57640;52.472;-1.950;2023-05-07T09:29:58;1.13;;;0.90;;
61330;SDS011;57640;52.472;-1.950;2023-05-07T09:33:03;1.02;;;0.90;;
61330;SDS011;57640;52.472;-1.950;2023-05-07T09:36:09;1.63;;;0.75;;
61330;SDS011;57640;52.472;-1.950;2023-05-07T09:39:17;1.60;;;0.80;;
61330;SDS011;57640;52.472;-1.950;2023-05-07T09:42:22;0.95;;;0.80;;
61330;SDS011;57640;52.472;-1.950;2023-05-07T09:45:28;1.15;;;0.70;;
61330;SDS011;57640;52.472;-1.950;2023-05-07T09:48:37;1.10;;;0.82;;
61330;SDS011;57640;52.472;-1.950;2023-05-07T09:51:45;1.02;;;0.82;;
61330;SDS011;57640;52.472;-1.950;2023-05-07T09:54:55;1.88;;;0.80;;
61330;SDS011;57640;52.472;-1.950;2023-05-07T09:58:02;1.00;;;0.80;;
61330;SDS011;57640;52.472;-1.950;2023-05-07T10:01:10;1.02;;;0.77;;
61330;SDS011;57640;52.472;-1.950;2023-05-07T10:04:16;1.58;;;0.93;;
61330;SDS011;57640;52.472;-1.950;2023-05-07T10:07:21;0.93;;;0.80;;
61330;SDS011;57640;52.472;-1.950;2023-05-07T10:10:30;0.98;;;0.77;;
61330;SDS011;57640;52.472;-1.950;2023-05-07T10:13:36;0.98;;;0.88;;
61330;SDS011;57640;52.472;-1.950;2023-05-07T10:16:42;0.95;;;0.80;;
61330;SDS011;57640;52.472;-1.950;2023-05-07T10:19:47;1.30;;;0.77;;
61330;SDS011;57640;52.472;-1.950;2023-05-07T10:22:54;1.48;;;0.82;;
61330;SDS011;57640;52.472;-1.950;2023-05-07T10:26:05;1.40;;;0.93;;
61330;SDS011;57640;52.472;-1.950;2023-05-07T10:29:12;1.27;;;0.93;;
61330;SDS011;57640;52.472;-1.950;2023-05-07T10:32:27;1.20;;;0.80;;
61330;SDS011;57640;52.472;-1.950;2023-05-07T10:35:36;0.90;;;0.70;;
61330;SDS011;57640;52.472;-1.950;2023-05-07T10:38:42;1.07;;;0.77;;
61330;SDS011;57640;52.472;-1.950;2023-05-07T10:41:51;0.80;;;0.80;;
61330;SDS011;57640;52.472;-1.950;2023-05-07T10:44:56;1.08;;;0.90;;
61330;SDS011;57640;52.472;-1.950;2023-05-07T10:48:05;1.52;;;0.85;;
61330;SDS011;57640;52.472;-1.950;2023-05-07T10:51:20;1.20;;;0.90;;
61330;SDS011;57640;52.472;-1.950;2023-05-07T10:54:26;2.03;;;0.80;;
61330;SDS011;57640;52.472;-1.950;2023-05-07T10:57:38;1.02;;;0.85;;
61330;SDS011;57640;52.472;-1.950;2023-05-07T11:00:43;1.33;;;0.80;;
61330;SDS011;57640;52.472;-1.950;2023-05-07T11:07:24;0.85;;;0.80;;
61330;SDS011;57640;52.472;-1.950;2023-05-07T11:14:03;1.20;;;0.90;;
61330;SDS011;57640;52.472;-1.950;2023-05-07T11:17:08;1.67;;;0.90;;
61330;SDS011;57640;52.472;-1.950;2023-05-07T11:20:14;1.25;;;0.90;;
61330;SDS011;57640;52.472;-1.950;2023-05-07T11:26:44;1.70;;;0.90;;
61330;SDS011;57640;52.472;-1.950;2023-05-07T11:29:53;1.55;;;0.90;;
61330;SDS011;57640;52.472;-1.950;2023-05-07T11:32:58;1.55;;;0.82;;
61330;SDS011;57640;52.472;-1.950;2023-05-07T11:36:08;1.35;;;0.85;;
61330;SDS011;57640;52.472;-1.950;2023-05-07T11:39:29;0.90;;;0.80;;
61330;SDS011;57640;52.472;-1.950;2023-05-07T11:42:35;1.10;;;0.80;;
61330;SDS011;57640;52.472;-1.950;2023-05-07T11:45:44;1.48;;;0.70;;
61330;SDS011;57640;52.472;-1.950;2023-05-07T11:48:49;1.33;;;0.85;;
61330;SDS011;57640;52.472;-1.950;2023-05-07T11:51:55;1.33;;;0.90;;
61330;SDS011;57640;52.472;-1.950;2023-05-07T11:55:01;1.10;;;0.80;;
61330;SDS011;57640;52.472;-1.950;2023-05-07T11:58:07;1.50;;;0.93;;
61330;SDS011;57640;52.472;-1.950;2023-05-07T12:01:16;1.65;;;0.93;;
61330;SDS011;57640;52.472;-1.950;2023-05-07T12:04:22;1.10;;;0.80;;
61330;SDS011;57640;52.472;-1.950;2023-05-07T12:07:27;2.08;;;0.90;;
61330;SDS011;57640;52.472;-1.950;2023-05-07T12:10:34;1.02;;;0.80;;
61330;SDS011;57640;52.472;-1.950;2023-05-07T12:13:39;1.17;;;0.75;;
61330;SDS011;57640;52.472;-1.950;2023-05-07T12:16:47;1.10;;;0.80;;
61330;SDS011;57640;52.472;-1.950;2023-05-07T12:19:53;1.48;;;0.90;;
61330;SDS011;57640;52.472;-1.950;2023-05-07T12:22:58;1.20;;;0.90;;
61330;SDS011;57640;52.472;-1.950;2023-05-07T12:26:04;1.15;;;0.82;;
61330;SDS011;57640;52.472;-1.950;2023-05-07T12:29:09;0.95;;;0.70;;
61330;SDS011;57640;52.472;-1.950;2023-05-07T12:32:18;0.73;;;0.73;;
61330;SDS011;57640;52.472;-1.950;2023-05-07T12:35:27;1.58;;;0.90;;
61330;SDS011;57640;52.472;-1.950;2023-05-07T12:38:36;1.95;;;0.90;;
61330;SDS011;57640;52.472;-1.950;2023-05-07T12:41:54;1.80;;;0.90;;
61330;SDS011;57640;52.472;-1.950;2023-05-07T12:45:07;1.25;;;0.73;;
61330;SDS011;57640;52.472;-1.950;2023-05-07T12:48:14;0.82;;;0.77;;
61330;SDS011;57640;52.472;-1.950;2023-05-07T12:51:20;1.50;;;0.80;;
61330;SDS011;57640;52.472;-1.950;2023-05-07T12:54:28;1.67;;;0.88;;
61330;SDS011;57640;52.472;-1.950;2023-05-07T12:57:37;2.50;;;1.00;;
61330;SDS011;57640;52.472;-1.950;2023-05-07T13:00:43;1.00;;;0.80;;
61330;SDS011;57640;52.472;-1.950;2023-05-07T13:03:51;1.08;;;0.93;;
61330;SDS011;57640;52.472;-1.950;2023-05-07T13:06:57;0.98;;;0.70;;
61330;SDS011;57640;52.472;-1.950;2023-05-07T13:10:03;1.25;;;0.85;;
61330;SDS011;57640;52.472;-1.950;2023-05-07T13:13:09;1.48;;;0.90;;
61330;SDS011;57640;52.472;-1.950;2023-05-07T13:16:14;0.70;;;0.70;;
61330;SDS011;57640;52.472;-1.950;2023-05-07T13:19:22;0.88;;;0.70;;
61330;SDS011;57640;52.472;-1.950;2023-05-07T13:22:27;1.05;;;0.70;;
61330;SDS011;57640;52.472;-1.950;2023-05-07T13:25:32;0.90;;;0.80;;
61330;SDS011;57640;52.472;-1.950;2023-05-07T13:28:38;1.42;;;0.80;;
61330;SDS011;57640;52.472;-1.950;2023-05-07T13:31:44;1.10;;;0.80;;
61330;SDS011;57640;52.472;-1.950;2023-05-07T13:34:52;0.90;;;0.80;;
61330;SDS011;57640;52.472;-1.950;2023-05-07T13:37:57;1.10;;;0.70;;
61330;SDS011;57640;52.472;-1.950;2023-05-07T13:41:03;1.15;;;0.80;;
61330;SDS011;57640;52.472;-1.950;2023-05-07T13:44:08;0.90;;;0.80;;
61330;SDS011;57640;52.472;-1.950;2023-05-07T13:47:13;1.67;;;0.90;;
61330;SDS011;57640;52.472;-1.950;2023-05-07T13:50:21;1.17;;;0.77;;
61330;SDS011;57640;52.472;-1.950;2023-05-07T13:53:26;1.20;;;0.80;;
61330;SDS011;57640;52.472;-1.950;2023-05-07T13:56:32;0.80;;;0.70;;
61330;SDS011;57640;52.472;-1.950;2023-05-07T13:59:37;1.00;;;0.90;;
61330;SDS011;57640;52.472;-1.950;2023-05-07T14:02:43;1.00;;;0.80;;
61330;SDS011;57640;52.472;-1.950;2023-05-07T14:05:50;1.08;;;0.80;;
61330;SDS011;57640;52.472;-1.950;2023-05-07T14:08:56;1.60;;;0.88;;
61330;SDS011;57640;52.472;-1.950;2023-05-07T14:12:02;0.95;;;0.77;;
61330;SDS011;57640;52.472;-1.950;2023-05-07T14:15:08;1.45;;;0.90;;
61330;SDS011;57640;52.472;-1.950;2023-05-07T14:18:13;0.93;;;0.80;;
61330;SDS011;57640;52.472;-1.950;2023-05-07T14:21:21;1.17;;;0.82;;
61330;SDS011;57640;52.472;-1.950;2023-05-07T14:24:26;1.27;;;0.90;;
61330;SDS011;57640;52.472;-1.950;2023-05-07T14:27:32;0.90;;;0.80;;
61330;SDS011;57640;52.472;-1.950;2023-05-07T14:30:38;1.08;;;0.90;;
61330;SDS011;57640;52.472;-1.950;2023-05-07T14:33:43;1.23;;;0.70;;
61330;SDS011;57640;52.472;-1.950;2023-05-07T14:36:51;0.68;;;0.60;;
61330;SDS011;57640;52.472;-1.950;2023-05-07T14:39:57;0.93;;;0.80;;
61330;SDS011;57640;52.472;-1.950;2023-05-07T14:43:03;1.92;;;0.98;;
61330;SDS011;57640;52.472;-1.950;2023-05-07T14:46:08;1.25;;;0.77;;
61330;SDS011;57640;52.472;-1.950;2023-05-07T14:49:13;0.98;;;0.73;;
61330;SDS011;57640;52.472;-1.950;2023-05-07T14:52:21;0.98;;;0.70;;
61330;SDS011;57640;52.472;-1.950;2023-05-07T14:55:28;1.65;;;1.02;;
61330;SDS011;57640;52.472;-1.950;2023-05-07T14:58:33;1.38;;;0.90;;
61330;SDS011;57640;52.472;-1.950;2023-05-07T15:01:39;1.73;;;0.90;;
61330;SDS011;57640;52.472;-1.950;2023-05-07T15:04:47;1.23;;;0.80;;
61330;SDS011;57640;52.472;-1.950;2023-05-07T15:07:55;0.88;;;0.70;;
61330;SDS011;57640;52.472;-1.950;2023-05-07T15:11:01;1.33;;;0.80;;
61330;SDS011;57640;52.472;-1.950;2023-05-07T15:14:06;1.13;;;0.80;;
61330;SDS011;57640;52.472;-1.950;2023-05-07T15:17:11;2.45;;;1.00;;
61330;SDS011;57640;52.472;-1.950;2023-05-07T15:20:17;1.80;;;0.80;;
61330;SDS011;57640;52.472;-1.950;2023-05-07T15:23:25;1.25;;;0.90;;
61330;SDS011;57640;52.472;-1.950;2023-05-07T15:26:30;1.65;;;0.90;;
61330;SDS011;57640;52.472;-1.950;2023-05-07T15:29:35;1.27;;;0.80;;
61330;SDS011;57640;52.472;-1.950;2023-05-07T15:32:41;0.95;;;0.80;;
61330;SDS011;57640;52.472;-1.950;2023-05-07T15:35:46;0.80;;;0.70;;
61330;SDS011;57640;52.472;-1.950;2023-05-07T15:38:54;0.80;;;0.80;;
61330;SDS011;57640;52.472;-1.950;2023-05-07T15:42:00;1.20;;;0.85;;
61330;SDS011;57640;52.472;-1.950;2023-05-07T15:45:06;1.15;;;0.90;;
61330;SDS011;57640;52.472;-1.950;2023-05-07T15:48:13;1.75;;;0.80;;
61330;SDS011;57640;52.472;-1.950;2023-05-07T15:51:18;1.48;;;0.90;;
61330;SDS011;57640;52.472;-1.950;2023-05-07T15:54:26;1.35;;;0.80;;
61330;SDS011;57640;52.472;-1.950;2023-05-07T15:57:31;1.50;;;0.70;;
61330;SDS011;57640;52.472;-1.950;2023-05-07T16:01:03;1.08;;;0.85;;
61330;SDS011;57640;52.472;-1.950;2023-05-07T16:07:38;1.00;;;0.75;;
61330;SDS011;57640;52.472;-1.950;2023-05-07T16:11:00;0.93;;;0.70;;
61330;SDS011;57640;52.472;-1.950;2023-05-07T16:14:17;1.48;;;0.90;;
61330;SDS011;57640;52.472;-1.950;2023-05-07T16:17:21;1.33;;;0.90;;
61330;SDS011;57640;52.472;-1.950;2023-05-07T16:20:28;0.93;;;0.80;;
61330;SDS011;57640;52.472;-1.950;2023-05-07T16:23:33;1.73;;;0.80;;
61330;SDS011;57640;52.472;-1.950;2023-05-07T16:26:42;0.85;;;0.80;;
61330;SDS011;57640;52.472;-1.950;2023-05-07T16:29:47;1.13;;;0.80;;
61330;SDS011;57640;52.472;-1.950;2023-05-07T16:32:52;1.25;;;0.80;;
61330;SDS011;57640;52.472;-1.950;2023-05-07T16:35:57;0.80;;;0.70;;
61330;SDS011;57640;52.472;-1.950;2023-05-07T16:39:03;1.17;;;0.70;;
61330;SDS011;57640;52.472;-1.950;2023-05-07T16:42:11;1.25;;;0.90;;
61330;SDS011;57640;52.472;-1.950;2023-05-07T16:45:17;1.00;;;0.77;;
61330;SDS011;57640;52.472;-1.950;2023-05-07T16:48:22;0.95;;;0.70;;
61330;SDS011;57640;52.472;-1.950;2023-05-07T16:51:28;0.90;;;0.70;;
61330;SDS011;57640;52.472;-1.950;2023-05-07T16:54:34;0.85;;;0.70;;
61330;SDS011;57640;52.472;-1.950;2023-05-07T16:57:41;0.70;;;0.70;;
61330;SDS011;57640;52.472;-1.950;2023-05-07T17:00:47;0.80;;;0.60;;
61330;SDS011;57640;52.472;-1.950;2023-05-07T17:03:52;1.35;;;0.70;;
61330;SDS011;57640;52.472;-1.950;2023-05-07T17:06:58;0.85;;;0.70;;
61330;SDS011;57640;52.472;-1.950;2023-05-07T17:10:04;1.50;;;0.90;;
61330;SDS011;57640;52.472;-1.950;2023-05-07T17:13:12;0.98;;;0.70;;
61330;SDS011;57640;52.472;-1.950;2023-05-07T17:16:17;1.30;;;0.80;;
61330;SDS011;57640;52.472;-1.950;2023-05-07T17:19:22;0.82;;;0.70;;
61330;SDS011;57640;52.472;-1.950;2023-05-07T17:22:28;1.45;;;0.80;;
61330;SDS011;57640;52.472;-1.950;2023-05-07T17:25:33;1.13;;;0.60;;
61330;SDS011;57640;52.472;-1.950;2023-05-07T17:28:42;0.60;;;0.57;;
61330;SDS011;57640;52.472;-1.950;2023-05-07T17:31:47;0.98;;;0.70;;
61330;SDS011;57640;52.472;-1.950;2023-05-07T17:34:52;0.57;;;0.55;;
61330;SDS011;57640;52.472;-1.950;2023-05-07T17:37:58;1.05;;;0.70;;
61330;SDS011;57640;52.472;-1.950;2023-05-07T17:41:03;1.25;;;0.70;;
61330;SDS011;57640;52.472;-1.950;2023-05-07T17:44:11;0.85;;;0.60;;
61330;SDS011;57640;52.472;-1.950;2023-05-07T17:47:18;0.70;;;0.60;;
61330;SDS011;57640;52.472;-1.950;2023-05-07T17:50:23;0.93;;;0.70;;
61330;SDS011;57640;52.472;-1.950;2023-05-07T17:53:29;1.00;;;0.70;;
61330;SDS011;57640;52.472;-1.950;2023-05-07T17:56:35;1.13;;;0.82;;
61330;SDS011;57640;52.472;-1.950;2023-05-07T17:59:44;0.88;;;0.75;;
61330;SDS011;57640;52.472;-1.950;2023-05-07T18:02:50;1.17;;;0.70;;
61330;SDS011;57640;52.472;-1.950;2023-05-07T18:05:55;1.35;;;0.90;;
61330;SDS011;57640;52.472;-1.950;2023-05-07T18:09:01;0.90;;;0.55;;
61330;SDS011;57640;52.472;-1.950;2023-05-07T18:12:06;0.80;;;0.70;;
61330;SDS011;57640;52.472;-1.950;2023-05-07T18:15:14;1.88;;;0.75;;
61330;SDS011;57640;52.472;-1.950;2023-05-07T18:18:20;1.00;;;0.70;;
61330;SDS011;57640;52.472;-1.950;2023-05-07T18:21:29;1.15;;;0.70;;
61330;SDS011;57640;52.472;-1.950;2023-05-07T18:24:35;1.20;;;0.77;;
61330;SDS011;57640;52.472;-1.950;2023-05-07T18:27:40;1.25;;;0.80;;
61330;SDS011;57640;52.472;-1.950;2023-05-07T18:30:48;1.35;;;0.70;;
61330;SDS011;57640;52.472;-1.950;2023-05-07T18:33:53;1.40;;;0.80;;
61330;SDS011;57640;52.472;-1.950;2023-05-07T18:36:59;1.33;;;0.90;;
61330;SDS011;57640;52.472;-1.950;2023-05-07T18:40:04;1.00;;;0.80;;
61330;SDS011;57640;52.472;-1.950;2023-05-07T18:43:10;1.33;;;0.82;;
61330;SDS011;57640;52.472;-1.950;2023-05-07T18:46:18;1.10;;;0.80;;
61330;SDS011;57640;52.472;-1.950;2023-05-07T18:49:23;1.40;;;0.90;;